createdAt,value
2022-10-13T11:56:22.554Z,14.40
2022-10-13T11:58:51.206Z,14.40
2022-10-13T12:01:20.362Z,14.40
2022-10-13T12:03:49.562Z,14.40
2022-10-13T12:06:33.475Z,14.40
2022-10-13T12:09:08.592Z,14.50
2022-10-13T12:11:39.717Z,14.50
2022-10-13T12:14:19.755Z,14.50
2022-10-13T12:19:26.324Z,14.50
2022-10-13T12:21:57.862Z,14.50
2022-10-13T12:24:29.341Z,14.50
2022-10-13T12:27:00.851Z,14.50
2022-10-13T12:29:34.973Z,14.50
2022-10-13T12:32:20.416Z,14.50
2022-10-13T12:34:49.724Z,14.50
2022-10-13T12:37:27.241Z,14.50
2022-10-13T12:39:58.752Z,14.50
2022-10-13T12:42:31.530Z,14.60
2022-10-13T12:45:01.516Z,14.50
2022-10-13T12:47:47.178Z,14.60
2022-10-13T12:50:37.911Z,14.60
2022-10-13T12:53:17.267Z,14.60
2022-10-13T12:55:59.075Z,14.60
2022-10-13T12:58:32.528Z,14.60
2022-10-13T13:01:22.180Z,14.60
2022-10-13T13:03:57.256Z,14.60
2022-10-13T13:06:32.313Z,14.60
2022-10-13T13:09:27.044Z,14.60
2022-10-13T13:12:23.792Z,14.60
2022-10-13T13:14:57.372Z,14.60
2022-10-13T13:17:56.748Z,14.60
2022-10-13T13:20:26.075Z,14.60
2022-10-13T13:22:54.854Z,14.60
2022-10-13T13:25:23.633Z,14.60
2022-10-13T13:27:52.905Z,14.60
2022-10-13T13:30:25.032Z,14.60
2022-10-13T13:32:53.424Z,14.60
2022-10-13T13:35:21.878Z,14.60
2022-10-13T13:37:53.053Z,14.60
2022-10-13T13:40:23.749Z,14.60
2022-10-13T13:42:52.543Z,14.60
2022-10-13T13:45:24.928Z,14.70
2022-10-13T13:48:00.368Z,14.70
2022-10-13T13:50:32.916Z,14.80
2022-10-13T13:53:01.940Z,14.80
2022-10-13T13:55:30.691Z,14.80
2022-10-13T13:57:59.688Z,14.90
2022-10-13T14:00:29.337Z,14.90
2022-10-13T14:02:57.881Z,14.90
2022-10-13T14:05:26.634Z,14.90
2022-10-13T14:07:57.661Z,14.90
2022-10-13T14:10:27.045Z,14.90
2022-10-13T14:12:55.424Z,14.90
2022-10-13T14:15:28.731Z,14.90
2022-10-13T14:17:59.319Z,15.00
2022-10-13T14:20:27.678Z,15.00
2022-10-13T14:22:56.091Z,15.00
2022-10-13T14:25:24.456Z,15.00
2022-10-13T14:27:53.033Z,15.00
2022-10-13T14:30:21.475Z,15.00
2022-10-13T14:32:52.857Z,15.00
2022-10-13T14:35:22.551Z,15.00
2022-10-13T14:37:51.189Z,15.00
2022-10-13T14:40:19.618Z,15.00
2022-10-13T14:42:47.912Z,15.00
2022-10-13T14:45:17.037Z,15.00
2022-10-13T14:47:45.489Z,15.10
2022-10-13T14:50:13.914Z,15.00
2022-10-13T14:52:46.974Z,15.00
2022-10-13T14:55:15.338Z,15.00
2022-10-13T14:57:44.762Z,15.00
2022-10-13T15:00:14.326Z,15.10
2022-10-13T15:02:42.697Z,15.10
2022-10-13T15:05:11.293Z,15.10
2022-10-13T15:07:42.571Z,15.10
2022-10-13T15:10:12.387Z,15.10
2022-10-13T15:12:40.842Z,15.00
2022-10-13T15:15:10.138Z,15.10
2022-10-13T15:17:38.451Z,15.00
2022-10-13T15:20:08.419Z,15.10
2022-10-13T15:22:37.420Z,15.00
2022-10-13T15:25:11.974Z,15.10
2022-10-13T15:27:42.054Z,15.10
2022-10-13T15:30:12.310Z,15.10
2022-10-13T15:32:41.041Z,15.10
2022-10-13T15:35:11.689Z,15.10
2022-10-13T15:37:43.206Z,15.10
2022-10-13T15:40:14.611Z,15.10
2022-10-13T15:42:43.133Z,15.10
2022-10-13T15:45:12.918Z,15.00
2022-10-13T15:47:42.177Z,15.10
2022-10-13T15:50:11.709Z,15.10
2022-10-13T15:52:41.241Z,15.10
2022-10-13T15:55:12.840Z,15.10
2022-10-13T15:57:41.545Z,15.10
2022-10-13T16:00:13.077Z,15.10
2022-10-13T16:02:42.830Z,15.10
2022-10-13T16:05:13.549Z,15.10
2022-10-13T16:07:42.940Z,15.10
2022-10-13T16:10:17.253Z,15.10
2022-10-13T16:12:49.628Z,15.10
2022-10-13T16:15:20.487Z,15.10
2022-10-13T16:17:52.524Z,15.10
2022-10-13T16:20:21.637Z,15.10
2022-10-13T16:22:50.564Z,15.10
2022-10-13T16:25:20.749Z,15.10
2022-10-13T16:27:49.525Z,15.10
2022-10-13T16:30:19.084Z,15.10
2022-10-13T16:32:47.764Z,15.10
2022-10-13T16:35:16.577Z,15.10
2022-10-13T16:37:45.039Z,15.10
2022-10-13T16:40:14.320Z,15.10
2022-10-13T16:42:45.014Z,15.10
2022-10-13T16:45:14.324Z,15.10
2022-10-13T16:47:42.929Z,15.10
2022-10-13T16:50:12.136Z,15.10
2022-10-13T16:52:40.700Z,15.10
2022-10-13T16:55:10.500Z,15.10
2022-10-13T16:57:38.981Z,15.10
2022-10-13T17:00:10.767Z,15.10
2022-10-13T17:02:39.245Z,15.10
2022-10-13T17:05:07.956Z,15.10
2022-10-13T17:07:36.485Z,15.10
2022-10-13T17:10:05.575Z,15.10
2022-10-13T17:12:33.978Z,15.10
2022-10-13T17:15:02.401Z,15.10
2022-10-13T17:17:32.356Z,15.10
2022-10-13T17:20:00.750Z,15.10
2022-10-13T17:22:29.142Z,15.10
2022-10-13T17:24:57.434Z,15.10
2022-10-13T17:27:25.763Z,15.10
2022-10-13T17:29:54.745Z,15.10
2022-10-13T17:32:23.210Z,15.10
2022-10-13T17:34:53.625Z,15.10
2022-10-13T17:37:22.385Z,15.10
2022-10-13T17:39:51.097Z,15.10
2022-10-13T17:42:19.455Z,15.10
2022-10-13T17:44:49.814Z,15.10
2022-10-13T17:47:18.416Z,15.10
2022-10-13T17:49:47.011Z,15.10
2022-10-13T17:52:18.552Z,15.10
2022-10-13T17:54:47.851Z,15.10
2022-10-13T17:57:16.189Z,15.10
2022-10-13T17:59:46.758Z,15.10
2022-10-13T18:02:15.155Z,15.10
2022-10-13T18:04:43.700Z,15.10
2022-10-13T18:07:12.177Z,15.10
2022-10-13T18:09:41.898Z,15.10
2022-10-13T18:12:12.210Z,15.10
2022-10-13T18:14:40.555Z,15.10
2022-10-13T18:17:11.594Z,15.10
2022-10-13T18:19:40.525Z,15.10
2022-10-13T18:22:08.959Z,15.10
2022-10-13T18:24:37.823Z,15.10
2022-10-13T18:27:07.515Z,15.10
2022-10-13T18:29:37.057Z,15.10
2022-10-13T18:32:05.654Z,15.10
2022-10-13T18:34:34.123Z,15.10
2022-10-13T18:37:02.461Z,15.10
2022-10-13T18:39:31.036Z,15.10
2022-10-13T18:41:59.505Z,15.10
2022-10-13T18:44:36.735Z,15.10
2022-10-13T18:47:06.511Z,15.10
2022-10-13T18:49:35.018Z,15.10
2022-10-13T18:52:03.738Z,15.10
2022-10-13T18:54:32.286Z,15.10
2022-10-13T18:57:00.702Z,15.10
2022-10-13T18:59:29.175Z,15.10
2022-10-13T19:01:59.271Z,15.10
2022-10-13T19:04:27.623Z,15.20
2022-10-13T19:06:55.938Z,15.10
2022-10-13T19:09:25.050Z,15.10
2022-10-13T19:11:53.402Z,15.10
2022-10-13T19:14:22.559Z,15.20
2022-10-13T19:16:51.491Z,15.10
2022-10-13T19:19:22.817Z,15.10
2022-10-13T19:21:55.365Z,15.10
2022-10-13T19:24:23.638Z,15.10
2022-10-13T19:26:51.976Z,15.10
2022-10-13T19:29:20.349Z,15.10
2022-10-13T19:31:49.021Z,15.10
2022-10-13T19:34:17.373Z,15.20
2022-10-13T19:36:48.381Z,15.20
2022-10-13T19:39:18.520Z,15.20
2022-10-13T19:41:48.826Z,15.10
2022-10-13T19:44:18.278Z,15.10
2022-10-13T19:46:47.614Z,15.10
2022-10-13T19:49:18.032Z,15.10
2022-10-13T19:51:49.121Z,15.10
2022-10-13T19:54:19.807Z,15.20
2022-10-13T19:56:49.522Z,15.10
2022-10-13T19:59:18.767Z,15.10
2022-10-13T20:01:47.403Z,15.10
2022-10-13T20:04:18.348Z,15.10
2022-10-13T20:06:48.300Z,15.10
2022-10-13T20:09:17.402Z,15.20
2022-10-13T20:11:46.456Z,15.10
2022-10-13T20:14:15.392Z,15.20
2022-10-13T20:16:44.098Z,15.10
2022-10-13T20:19:14.419Z,15.10
2022-10-13T20:21:43.255Z,15.10
2022-10-13T20:24:14.025Z,15.20
2022-10-13T20:26:42.370Z,15.20
2022-10-13T20:29:10.809Z,15.10
2022-10-13T20:31:39.295Z,15.10
2022-10-13T20:34:07.732Z,15.10
2022-10-13T20:36:38.815Z,15.20
2022-10-13T20:39:08.982Z,15.20
2022-10-13T20:41:38.765Z,15.10
2022-10-13T20:44:09.781Z,15.20
2022-10-13T20:46:38.094Z,15.10
2022-10-13T20:49:11.314Z,15.10
2022-10-13T20:51:40.756Z,15.10
2022-10-13T20:54:09.414Z,15.20
2022-10-13T20:56:40.136Z,15.10
2022-10-13T20:59:11.002Z,15.20
2022-10-13T21:01:39.774Z,15.20
2022-10-13T21:04:08.374Z,15.20
2022-10-13T21:06:36.996Z,15.10
2022-10-13T21:09:06.711Z,15.20
2022-10-13T21:11:35.446Z,15.20
2022-10-13T21:14:07.014Z,15.10
2022-10-13T21:16:36.287Z,15.10
2022-10-13T21:19:08.208Z,15.10
2022-10-13T21:21:39.061Z,15.10
2022-10-13T21:24:09.323Z,15.20
2022-10-13T21:26:38.984Z,15.10
2022-10-13T21:29:08.691Z,15.20
2022-10-13T21:31:37.401Z,15.10
2022-10-13T21:34:06.510Z,15.10
2022-10-13T21:36:35.295Z,15.10
2022-10-13T21:39:06.938Z,15.20
2022-10-13T21:41:36.743Z,15.20
2022-10-13T21:44:05.208Z,15.10
2022-10-13T21:46:36.853Z,15.10
2022-10-13T21:49:06.720Z,15.20
2022-10-13T21:51:37.668Z,15.10
2022-10-13T21:54:09.353Z,15.10
2022-10-13T21:56:38.683Z,15.20
2022-10-13T21:59:08.064Z,15.20
2022-10-13T22:01:37.906Z,15.20
2022-10-13T22:04:13.192Z,15.20
2022-10-13T22:06:41.804Z,15.20
2022-10-13T22:09:10.698Z,15.20
2022-10-13T22:11:40.366Z,15.20
2022-10-13T22:14:14.704Z,15.10
2022-10-13T22:16:46.289Z,15.20
2022-10-13T22:19:15.187Z,15.20
2022-10-13T22:21:45.812Z,15.10
2022-10-13T22:24:16.344Z,15.20
2022-10-13T22:26:45.756Z,15.10
2022-10-13T22:29:16.185Z,15.10
2022-10-13T22:31:46.225Z,15.20
2022-10-13T22:34:15.639Z,15.10
2022-10-13T22:36:45.197Z,15.20
2022-10-13T22:39:14.487Z,15.10
2022-10-13T22:41:43.228Z,15.10
2022-10-13T22:44:11.786Z,15.10
2022-10-13T22:46:40.861Z,15.20
2022-10-13T22:49:14.829Z,15.10
2022-10-13T22:51:43.278Z,15.10
2022-10-13T22:54:13.370Z,15.10
2022-10-13T22:56:42.887Z,15.10
2022-10-13T22:59:12.850Z,15.10
2022-10-13T23:01:41.130Z,15.10
2022-10-13T23:04:09.651Z,15.20
2022-10-13T23:06:39.712Z,15.10
2022-10-13T23:09:11.316Z,15.20
2022-10-13T23:11:40.647Z,15.10
2022-10-13T23:14:12.304Z,15.20
2022-10-13T23:16:40.850Z,15.10
2022-10-13T23:19:09.345Z,15.10
2022-10-13T23:21:39.426Z,15.10
2022-10-13T23:24:08.994Z,15.10
2022-10-13T23:26:37.521Z,15.20
2022-10-13T23:29:06.237Z,15.10
2022-10-13T23:31:35.021Z,15.10
2022-10-13T23:34:03.485Z,15.10
2022-10-13T23:36:33.374Z,15.10
2022-10-13T23:39:05.591Z,15.10
2022-10-13T23:41:34.083Z,15.10
2022-10-13T23:44:02.551Z,15.10
2022-10-13T23:46:30.933Z,15.10
2022-10-13T23:48:59.280Z,15.10
2022-10-13T23:51:27.686Z,15.20
2022-10-13T23:53:56.821Z,15.10
2022-10-13T23:56:26.849Z,15.10
2022-10-13T23:58:55.161Z,15.20
